| time (UTC) | temp F | wind direction | speed knots | gust knots | rain 1hr in | rain 24hr in | rain mn in | humidity % | barometer mb |
| 20260906120651 | 73 | 234 | 0.0 | 0.0 | 0.00 | 0.00 | 0.00 | 95 | 1014.8 |
| 20260906120148 | 73 | 239 | 0.0 | 0.0 | 0.00 | 0.00 | 0.00 | 95 | 1015.0 |
| 20260906115648 | 73 | 234 | 0.0 | 0.0 | 0.00 | 0.00 | 0.00 | 96 | 1014.8 |
| 20260906115143 | 73 | 234 | 0.0 | 0.0 | 0.00 | 0.00 | 0.00 | 96 | 1014.8 |
| 20260906114642 | 73 | 234 | 0.0 | 0.0 | 0.00 | 0.00 | 0.00 | 96 | 1014.7 |
| 20260906114137 | 73 | 235 | 0.0 | 0.0 | 0.00 | 0.00 | 0.00 | 96 | 1014.6 |
| 20260906113637 | 72 | 240 | 0.0 | 0.0 | 0.00 | 0.00 | 0.00 | 96 | 1014.3 |
| 20260906113132 | 72 | 250 | 0.0 | 0.0 | 0.00 | 0.00 | 0.00 | 96 | 1014.5 |
| 20260906112631 | 72 | 234 | 0.0 | 0.0 | 0.00 | 0.00 | 0.00 | 96 | 1014.4 |
| 20260906112129 | 72 | 219 | 0.0 | 0.0 | 0.00 | 0.00 | 0.00 | 96 | 1014.2 |
| 20260906111628 | 72 | 208 | 0.0 | 0.0 | 0.00 | 0.00 | 0.00 | 95 | 1014.4 |
| 20260906111123 | 72 | 204 | 0.0 | 0.0 | 0.00 | 0.00 | 0.00 | 95 | 1014.2 |
| 20260906110618 | 72 | 217 | 0.0 | 0.0 | 0.00 | 0.00 | 0.00 | 95 | 1014.2 |
| 20260906110118 | 73 | 219 | 0.0 | 0.0 | 0.00 | 0.00 | 0.00 | 95 | 1014.0 |
| 20260906105612 | 73 | 220 | 0.0 | 0.0 | 0.00 | 0.00 | 0.00 | 94 | 1014.2 |
| 20260906105108 | 73 | 272 | 0.0 | 0.9 | 0.00 | 0.00 | 0.00 | 94 | 1014.1 |
| 20260906104608 | 73 | 279 | 0.9 | 0.9 | 0.00 | 0.00 | 0.00 | 93 | 1014.0 |
| 20260906104101 | 73 | 278 | 0.9 | 0.9 | 0.00 | 0.00 | 0.00 | 93 | 1013.9 |
| 20260906103600 | 73 | 260 | 0.0 | 0.9 | 0.00 | 0.00 | 0.00 | 93 | 1013.8 |
| 20260906103055 | 73 | 236 | 0.9 | 0.9 | 0.00 | 0.00 | 0.00 | 93 | 1013.8 |
| 20260906102555 | 73 | 241 | 0.0 | 0.0 | 0.00 | 0.00 | 0.00 | 93 | 1014.0 |
| 20260906102050 | 73 | 242 | 0.0 | 0.0 | 0.00 | 0.00 | 0.00 | 93 | 1013.8 |
| 20260906101545 | 73 | 224 | 0.0 | 0.0 | 0.00 | 0.00 | 0.00 | 93 | 1013.8 |
| 20260906101039 | 73 | 238 | 0.0 | 0.0 | 0.00 | 0.00 | 0.00 | 93 | 1013.8 |
| 20260906100536 | 73 | 244 | 0.0 | 0.9 | 0.00 | 0.00 | 0.00 | 93 | 1014.0 |
| 20260906100035 | 73 | 254 | 0.9 | 0.9 | 0.00 | 0.00 | 0.00 | 93 | 1013.8 |
| 20260906095530 | 73 | 237 | 0.9 | 0.9 | 0.00 | 0.00 | 0.00 | 93 | 1014.0 |
| 20260906095026 | 73 | 253 | 0.9 | 1.7 | 0.00 | 0.00 | 0.00 | 93 | 1014.0 |
| 20260906094525 | 74 | 273 | 0.9 | 1.7 | 0.00 | 0.00 | 0.00 | 93 | 1013.8 |
| 20260906094021 | 74 | 274 | 0.9 | 1.7 | 0.00 | 0.00 | 0.00 | 93 | 1013.9 |
| 20260906093516 | 74 | 295 | 0.9 | 1.7 | 0.00 | 0.00 | 0.00 | 93 | 1013.9 |
| 20260906093010 | 74 | 237 | 0.0 | 0.0 | 0.00 | 0.00 | 0.00 | 94 | 1014.1 |
| 20260906092505 | 74 | 226 | 0.0 | 0.0 | 0.00 | 0.00 | 0.00 | 94 | 1013.8 |
| 20260906092000 | 74 | 253 | 1.7 | 1.7 | 0.00 | 0.00 | 0.00 | 95 | 1013.9 |
| 20260906091456 | 74 | 213 | 0.0 | 0.0 | 0.00 | 0.00 | 0.00 | 95 | 1013.8 |
| 20260906090953 | 73 | 202 | 0.0 | 0.0 | 0.00 | 0.00 | 0.00 | 94 | 1013.8 |
| 20260906090448 | 73 | 233 | 0.0 | 0.0 | 0.00 | 0.00 | 0.00 | 94 | 1013.8 |
| 20260906085947 | 73 | 253 | 0.0 | 0.0 | 0.00 | 0.00 | 0.00 | 94 | 1013.9 |
| 20260906085446 | 73 | 210 | 0.0 | 0.0 | 0.00 | 0.00 | 0.00 | 93 | 1013.6 |
| 20260906084946 | 74 | 207 | 0.0 | 0.0 | 0.00 | 0.00 | 0.00 | 93 | 1013.5 |
| 20260906084441 | 74 | 198 | 0.0 | 0.0 | 0.00 | 0.00 | 0.00 | 93 | 1013.5 |
| 20260906083939 | 74 | 241 | 0.0 | 0.0 | 0.00 | 0.00 | 0.00 | 93 | 1013.3 |
| 20260906083436 | 74 | 236 | 0.0 | 0.0 | 0.00 | 0.00 | 0.00 | 93 | 1013.6 |
| 20260906082934 | 74 | 254 | 0.9 | 1.7 | 0.00 | 0.00 | 0.00 | 94 | 1013.6 |
| 20260906082430 | 74 | 237 | 0.9 | 0.9 | 0.00 | 0.00 | 0.00 | 94 | 1013.4 |
| 20260906081926 | 75 | 252 | 0.0 | 0.0 | 0.00 | 0.00 | 0.00 | 94 | 1013.6 |
| 20260906081421 | 75 | 336 | 0.9 | 0.9 | 0.00 | 0.00 | 0.00 | 94 | 1013.5 |
| 20260906080917 | 75 | 304 | 0.9 | 1.7 | 0.00 | 0.00 | 0.00 | 94 | 1013.5 |
| 20260906080414 | 75 | 247 | 0.0 | 0.0 | 0.00 | 0.00 | 0.00 | 94 | 1013.3 |
| 20260906075913 | 75 | 233 | 0.0 | 0.0 | 0.00 | 0.00 | 0.00 | 94 | 1013.2 |
| 20260906075408 | 75 | 257 | 0.9 | 0.9 | 0.00 | 0.00 | 0.00 | 94 | 1013.3 |
| 20260906074903 | 75 | 261 | 0.9 | 0.9 | 0.00 | 0.00 | 0.00 | 94 | 1013.2 |
| 20260906074402 | 75 | 290 | 1.7 | 1.7 | 0.00 | 0.00 | 0.00 | 94 | 1013.4 |
| 20260906073901 | 75 | 215 | 0.9 | 0.9 | 0.00 | 0.00 | 0.00 | 94 | 1013.3 |
| 20260906073356 | 75 | 269 | 0.9 | 0.9 | 0.00 | 0.00 | 0.00 | 93 | 1013.2 |
| 20260906072853 | 75 | 257 | 0.9 | 1.7 | 0.00 | 0.00 | 0.00 | 93 | 1013.2 |
| 20260906072348 | 76 | 212 | 0.0 | 0.0 | 0.00 | 0.00 | 0.00 | 93 | 1013.1 |
| 20260906071844 | 76 | 227 | 0.0 | 0.0 | 0.00 | 0.00 | 0.00 | 92 | 1013.3 |
| 20260906071339 | 76 | 308 | 1.7 | 1.7 | 0.00 | 0.00 | 0.00 | 92 | 1013.3 |
| 20260906070836 | 76 | 235 | 0.0 | 0.0 | 0.00 | 0.00 | 0.00 | 92 | 1013.4 |
| 20260906070331 | 76 | 0 | 0.9 | 0.9 | 0.00 | 0.00 | 0.00 | 92 | 1013.3 |
| 20260906065827 | 76 | 260 | 0.9 | 0.9 | 0.00 | 0.00 | 0.00 | 91 | 1013.3 |
| 20260906065321 | 76 | 294 | 0.9 | 1.7 | 0.00 | 0.00 | 0.00 | 91 | 1013.4 |
| 20260906064817 | 76 | 235 | 0.0 | 0.0 | 0.00 | 0.00 | 0.00 | 91 | 1013.5 |
| 20260906064313 | 77 | 334 | 1.7 | 1.7 | 0.00 | 0.00 | 0.00 | 91 | 1013.5 |
| 20260906063812 | 77 | 234 | 0.0 | 0.0 | 0.00 | 0.00 | 0.00 | 91 | 1013.6 |
| 20260906063308 | 77 | 236 | 0.9 | 0.9 | 0.00 | 0.00 | 0.00 | 91 | 1013.3 |
| 20260906062803 | 77 | 231 | 0.0 | 0.0 | 0.00 | 0.00 | 0.00 | 91 | 1013.4 |
| 20260906062305 | 77 | 251 | 0.0 | 0.9 | 0.00 | 0.00 | 0.00 | 91 | 1013.5 |
| 20260906061758 | 77 | 250 | 0.0 | 0.0 | 0.00 | 0.00 | 0.00 | 91 | 1013.8 |
| 20260906061255 | 77 | 229 | 0.0 | 0.9 | 0.00 | 0.00 | 0.00 | 91 | 1013.7 |
| 20260906060755 | 77 | 261 | 0.9 | 0.9 | 0.00 | 0.00 | 0.00 | 91 | 1014.0 |
| 20260906060252 | 78 | 215 | 0.0 | 0.9 | 0.00 | 0.00 | 0.00 | 91 | 1013.9 |
| 20260906055748 | 78 | 277 | 0.9 | 0.9 | 0.00 | 0.00 | 0.00 | 90 | 1014.2 |
| 20260906055243 | 78 | 281 | 0.9 | 1.7 | 0.00 | 0.00 | 0.00 | 91 | 1014.0 |
| 20260906054738 | 78 | 209 | 0.0 | 0.0 | 0.00 | 0.00 | 0.00 | 91 | 1014.3 |
| 20260906054233 | 78 | 155 | 0.0 | 0.9 | 0.00 | 0.00 | 0.00 | 91 | 1014.0 |
| 20260906053730 | 78 | 244 | 0.0 | 0.0 | 0.00 | 0.00 | 0.00 | 91 | 1014.3 |
| 20260906053225 | 78 | 275 | 0.9 | 1.7 | 0.00 | 0.00 | 0.00 | 92 | 1014.3 |
| 20260906052720 | 78 | 273 | 1.7 | 1.7 | 0.00 | 0.00 | 0.00 | 93 | 1014.6 |
| 20260906052217 | 78 | 326 | 1.7 | 1.7 | 0.00 | 0.00 | 0.00 | 94 | 1014.7 |
| 20260906051714 | 78 | 240 | 0.9 | 1.7 | 0.00 | 0.00 | 0.00 | 94 | 1014.6 |
| 20260906051213 | 78 | 327 | 3.5 | 6.1 | 0.00 | 0.00 | 0.00 | 94 | 1014.8 |
| 20260906050708 | 78 | 286 | 3.5 | 5.2 | 0.00 | 0.00 | 0.00 | 94 | 1014.6 |
| 20260906050203 | 78 | 322 | 2.6 | 2.6 | 0.00 | 0.00 | 0.00 | 94 | 1014.8 |
| 20260906045701 | 78 | 288 | 2.6 | 3.5 | 0.00 | 0.00 | 0.00 | 94 | 1014.4 |
| 20260906045157 | 77 | 235 | 0.0 | 0.0 | 0.00 | 0.00 | 0.00 | 94 | 1014.3 |
| 20260906044653 | 77 | 242 | 0.9 | 0.9 | 0.00 | 0.00 | 0.00 | 94 | 1014.2 |
| 20260906044148 | 78 | 186 | 0.0 | 0.9 | 0.00 | 0.00 | 0.00 | 94 | 1014.1 |
| 20260906043644 | 78 | 157 | 0.9 | 0.9 | 0.00 | 0.00 | 0.00 | 93 | 1014.1 |
| 20260906043140 | 78 | 181 | 0.9 | 0.9 | 0.00 | 0.00 | 0.00 | 93 | 1013.9 |
| 20260906042639 | 78 | 126 | 0.9 | 1.7 | 0.00 | 0.00 | 0.00 | 93 | 1013.6 |
| 20260906042133 | 78 | 189 | 0.0 | 0.0 | 0.00 | 0.00 | 0.00 | 93 | 1013.8 |
| 20260906041630 | 78 | 199 | 0.0 | 0.0 | 0.00 | 0.00 | 0.00 | 93 | 1013.8 |
| 20260906041130 | 78 | 155 | 0.0 | 0.9 | 0.00 | 0.00 | 0.00 | 93 | 1014.0 |
| 20260906040625 | 78 | 147 | 0.9 | 0.9 | 0.00 | 0.00 | 0.00 | 93 | 1014.1 |
| 20260906040120 | 78 | 158 | 0.0 | 0.0 | 0.00 | 0.00 | 0.00 | 92 | 1013.9 |
| 20260906035615 | 78 | 176 | 0.0 | 0.0 | 0.00 | 0.00 | 0.00 | 91 | 1014.0 |
| 20260906035112 | 79 | 194 | 0.0 | 0.0 | 0.00 | 0.00 | 0.00 | 90 | 1013.9 |
| 20260906034611 | 79 | 199 | 0.0 | 0.0 | 0.00 | 0.00 | 0.00 | 90 | 1014.1 |
| 20260906034106 | 79 | 189 | 0.9 | 0.9 | 0.00 | 0.00 | 0.00 | 90 | 1014.1 |
| 20260906033602 | 79 | 206 | 0.9 | 0.9 | 0.00 | 0.00 | 0.00 | 89 | 1014.3 |
| 20260906033057 | 79 | 269 | 0.9 | 0.9 | 0.00 | 0.00 | 0.00 | 89 | 1014.4 |
| 20260906032554 | 79 | 212 | 0.0 | 0.0 | 0.00 | 0.00 | 0.00 | 88 | 1014.1 |
| 20260906032053 | 79 | 219 | 0.0 | 0.9 | 0.00 | 0.00 | 0.00 | 88 | 1014.1 |
| 20260906031549 | 80 | 231 | 0.9 | 0.9 | 0.00 | 0.00 | 0.00 | 88 | 1014.2 |
| 20260906031044 | 80 | 240 | 0.0 | 0.0 | 0.00 | 0.00 | 0.00 | 88 | 1014.1 |
| 20260906030544 | 80 | 243 | 0.9 | 0.9 | 0.00 | 0.00 | 0.00 | 88 | 1014.0 |
| 20260906030044 | 80 | 213 | 0.0 | 0.0 | 0.00 | 0.00 | 0.00 | 88 | 1014.1 |
| 20260906025543 | 80 | 221 | 0.0 | 0.0 | 0.00 | 0.00 | 0.00 | 87 | 1014.0 |
| 20260906025042 | 80 | 231 | 0.0 | 0.0 | 0.00 | 0.00 | 0.00 | 86 | 1014.2 |
| 20260906024537 | 80 | 231 | 0.0 | 0.0 | 0.00 | 0.00 | 0.00 | 85 | 1014.4 |
| 20260906024037 | 81 | 242 | 1.7 | 1.7 | 0.00 | 0.00 | 0.00 | 85 | 1014.3 |
| 20260906023533 | 81 | 247 | 0.0 | 0.9 | 0.00 | 0.00 | 0.00 | 85 | 1014.4 |
| 20260906023028 | 81 | 235 | 0.0 | 0.0 | 0.00 | 0.00 | 0.00 | 84 | 1014.5 |
| 20260906022523 | 81 | 216 | 0.9 | 0.9 | 0.00 | 0.00 | 0.00 | 84 | 1014.4 |
| 20260906022019 | 81 | 243 | 1.7 | 2.6 | 0.00 | 0.00 | 0.00 | 84 | 1014.4 |
| 20260906021514 | 81 | 241 | 0.9 | 1.7 | 0.00 | 0.00 | 0.00 | 83 | 1014.4 |
| 20260906021008 | 82 | 226 | 0.0 | 0.0 | 0.00 | 0.00 | 0.00 | 83 | 1014.7 |
| 20260906020507 | 82 | 277 | 0.9 | 0.9 | 0.00 | 0.00 | 0.00 | 82 | 1014.6 |
| 20260906020007 | 82 | 223 | 0.9 | 0.9 | 0.00 | 0.00 | 0.00 | 82 | 1014.4 |
| 20260906015506 | 82 | 281 | 1.7 | 1.7 | 0.00 | 0.00 | 0.00 | 83 | 1014.8 |
| 20260906015007 | 82 | 290 | 1.7 | 2.6 | 0.00 | 0.00 | 0.00 | 83 | 1014.7 |
| 20260906014501 | 81 | 235 | 3.5 | 3.5 | 0.00 | 0.00 | 0.00 | 84 | 1014.7 |
| 20260906013957 | 82 | 309 | 5.2 | 7.8 | 0.00 | 0.00 | 0.00 | 87 | 1014.7 |
| 20260906013452 | 82 | 290 | 3.5 | 5.2 | 0.00 | 0.00 | 0.00 | 87 | 1014.6 |
| 20260906012948 | 82 | 266 | 0.9 | 0.9 | 0.00 | 0.00 | 0.00 | 87 | 1014.4 |
| 20260906012442 | 82 | 243 | 1.7 | 1.7 | 0.00 | 0.00 | 0.00 | 88 | 1014.3 |
| 20260906011942 | 82 | 310 | 1.7 | 2.6 | 0.00 | 0.00 | 0.00 | 88 | 1014.1 |
| 20260906011437 | 82 | 294 | 0.9 | 0.9 | 0.00 | 0.00 | 0.00 | 88 | 1013.8 |
| 20260906010932 | 82 | 255 | 0.0 | 0.9 | 0.00 | 0.00 | 0.00 | 87 | 1013.8 |
| 20260906010428 | 82 | 252 | 0.0 | 0.0 | 0.00 | 0.00 | 0.00 | 87 | 1013.7 |
| 20260906005924 | 83 | 242 | 0.0 | 0.0 | 0.00 | 0.00 | 0.00 | 86 | 1013.5 |
| 20260906005423 | 83 | 235 | 0.9 | 0.9 | 0.00 | 0.00 | 0.00 | 86 | 1013.6 |
| 20260906004922 | 83 | 233 | 0.0 | 0.0 | 0.00 | 0.00 | 0.00 | 86 | 1013.4 |
| 20260906004416 | 83 | 237 | 0.0 | 0.0 | 0.00 | 0.00 | 0.00 | 85 | 1013.5 |
| 20260906003912 | 84 | 238 | 1.7 | 1.7 | 0.00 | 0.00 | 0.00 | 85 | 1013.6 |
| 20260906003407 | 84 | 280 | 0.9 | 0.9 | 0.00 | 0.00 | 0.00 | 84 | 1013.5 |
| 20260906002902 | 84 | 238 | 0.0 | 0.0 | 0.00 | 0.00 | 0.00 | 84 | 1013.3 |
| 20260906002402 | 84 | 250 | 0.9 | 0.9 | 0.00 | 0.00 | 0.00 | 83 | 1013.6 |
| 20260906001857 | 84 | 250 | 0.9 | 0.9 | 0.00 | 0.00 | 0.00 | 83 | 1013.4 |
| 20260906001354 | 84 | 268 | 0.9 | 0.9 | 0.00 | 0.00 | 0.00 | 82 | 1013.0 |
| 20260906000854 | 84 | 250 | 0.9 | 0.9 | 0.00 | 0.00 | 0.00 | 82 | 1012.7 |
| 20260906000355 | 84 | 282 | 0.9 | 0.9 | 0.00 | 0.00 | 0.00 | 82 | 1013.0 |
| 20260905235848 | 84 | 243 | 0.9 | 1.7 | 0.00 | 0.00 | 0.00 | 81 | 1013.0 |
| 20260905235343 | 84 | 224 | 0.0 | 0.0 | 0.00 | 0.00 | 0.00 | 82 | 1013.0 |
| 20260905234838 | 84 | 266 | 0.9 | 1.7 | 0.00 | 0.00 | 0.00 | 81 | 1013.0 |
| 20260905234333 | 84 | 241 | 0.0 | 0.9 | 0.00 | 0.00 | 0.00 | 81 | 1013.3 |
| 20260905233828 | 85 | 308 | 1.7 | 1.7 | 0.00 | 0.00 | 0.00 | 81 | 1013.2 |
| 20260905233323 | 85 | 217 | 0.0 | 0.0 | 0.00 | 0.00 | 0.00 | 81 | 1013.2 |
| 20260905232822 | 85 | 222 | 0.0 | 0.0 | 0.00 | 0.00 | 0.00 | 81 | 1012.9 |
| 20260905232319 | 85 | 266 | 0.0 | 0.9 | 0.00 | 0.00 | 0.00 | 80 | 1013.1 |
| 20260905231814 | 85 | 228 | 0.0 | 0.9 | 0.00 | 0.00 | 0.00 | 79 | 1013.2 |
| 20260905231309 | 86 | 249 | 1.7 | 2.6 | 0.00 | 0.00 | 0.00 | 78 | 1013.0 |
| 20260905230805 | 87 | 248 | 0.9 | 1.7 | 0.00 | 0.00 | 0.00 | 77 | 1013.1 |
| 20260905230303 | 86 | 240 | 0.9 | 0.9 | 0.00 | 0.00 | 0.00 | 77 | 1013.2 |
| 20260905225803 | 86 | 235 | 0.0 | 0.0 | 0.00 | 0.00 | 0.00 | 77 | 1013.2 |
| 20260905225258 | 86 | 223 | 2.6 | 2.6 | 0.00 | 0.00 | 0.00 | 77 | 1013.2 |
| 20260905224757 | 87 | 249 | 0.9 | 0.9 | 0.00 | 0.00 | 0.00 | 77 | 1013.3 |
| 20260905224253 | 87 | 186 | 0.0 | 0.9 | 0.00 | 0.00 | 0.00 | 76 | 1013.1 |
| 20260905223748 | 87 | 255 | 2.6 | 3.5 | 0.00 | 0.00 | 0.00 | 76 | 1013.4 |
| 20260905223246 | 87 | 244 | 1.7 | 2.6 | 0.00 | 0.00 | 0.00 | 76 | 1013.3 |
| 20260905222741 | 87 | 247 | 1.7 | 1.7 | 0.00 | 0.00 | 0.00 | 76 | 1013.2 |
| 20260905222240 | 87 | 221 | 4.3 | 5.2 | 0.00 | 0.00 | 0.00 | 77 | 1013.2 |
| 20260905221736 | 87 | 270 | 3.5 | 5.2 | 0.00 | 0.00 | 0.00 | 76 | 1013.0 |
| 20260905221233 | 88 | 251 | 1.7 | 1.7 | 0.00 | 0.00 | 0.00 | 76 | 1013.3 |
| 20260905220728 | 88 | 255 | 4.3 | 5.2 | 0.00 | 0.00 | 0.00 | 75 | 1013.4 |
| 20260905220224 | 89 | 236 | 1.7 | 2.6 | 0.00 | 0.00 | 0.00 | 75 | 1013.3 |
| 20260905215723 | 89 | 217 | 1.7 | 2.6 | 0.00 | 0.00 | 0.00 | 74 | 1013.4 |
| 20260905215219 | 89 | 237 | 2.6 | 2.6 | 0.00 | 0.00 | 0.00 | 74 | 1013.1 |
| 20260905214715 | 89 | 260 | 2.6 | 2.6 | 0.00 | 0.00 | 0.00 | 74 | 1013.1 |
| 20260905214210 | 89 | 257 | 3.5 | 5.2 | 0.00 | 0.00 | 0.00 | 74 | 1013.0 |
| 20260905213705 | 89 | 270 | 2.6 | 5.2 | 0.00 | 0.00 | 0.00 | 73 | 1013.1 |
| 20260905213201 | 90 | 262 | 1.7 | 2.6 | 0.00 | 0.00 | 0.00 | 73 | 1013.2 |
| 20260905212656 | 91 | 234 | 0.9 | 1.7 | 0.00 | 0.00 | 0.00 | 71 | 1013.3 |
| 20260905212155 | 90 | 268 | 2.6 | 2.6 | 0.00 | 0.00 | 0.00 | 73 | 1013.2 |
| 20260905211650 | 91 | 269 | 2.6 | 2.6 | 0.00 | 0.00 | 0.00 | 72 | 1013.2 |
| 20260905211145 | 91 | 289 | 3.5 | 3.5 | 0.00 | 0.00 | 0.00 | 70 | 1013.0 |
| 20260905210643 | 91 | 242 | 3.5 | 3.5 | 0.00 | 0.00 | 0.00 | 69 | 1013.0 |
| 20260905210142 | 92 | 113 | 1.7 | 1.7 | 0.00 | 0.00 | 0.00 | 69 | 1013.2 |
| 20260905205641 | 91 | 234 | 0.9 | 1.7 | 0.00 | 0.00 | 0.00 | 70 | 1013.2 |
| 20260905205136 | 91 | 355 | 0.9 | 1.7 | 0.00 | 0.00 | 0.00 | 69 | 1012.9 |
| 20260905204635 | 92 | 259 | 3.5 | 3.5 | 0.00 | 0.00 | 0.00 | 69 | 1013.0 |
| 20260905204131 | 92 | 249 | 3.5 | 3.5 | 0.00 | 0.00 | 0.00 | 69 | 1013.1 |
| 20260905203631 | 92 | 218 | 2.6 | 2.6 | 0.00 | 0.00 | 0.00 | 68 | 1013.1 |
| 20260905203126 | 92 | 240 | 2.6 | 2.6 | 0.00 | 0.00 | 0.00 | 68 | 1013.1 |
| 20260905202622 | 93 | 235 | 1.7 | 1.7 | 0.00 | 0.00 | 0.00 | 68 | 1013.1 |
| 20260905202117 | 93 | 275 | 0.0 | 0.9 | 0.00 | 0.00 | 0.00 | 67 | 1013.3 |
| 20260905201613 | 93 | 221 | 0.0 | 0.0 | 0.00 | 0.00 | 0.00 | 65 | 1013.1 |
| 20260905201112 | 93 | 232 | 0.9 | 0.9 | 0.00 | 0.00 | 0.00 | 64 | 1013.2 |
| 20260905200608 | 93 | 237 | 0.9 | 2.6 | 0.00 | 0.00 | 0.00 | 65 | 1013.3 |
| 20260905195601 | 93 | 249 | 1.7 | 1.7 | 0.00 | 0.00 | 0.00 | 63 | 1013.7 |
| 20260905195057 | 92 | 250 | 0.9 | 0.9 | 0.00 | 0.00 | 0.00 | 63 | 1013.6 |
| 20260905194556 | 92 | 269 | 2.6 | 2.6 | 0.00 | 0.00 | 0.00 | 64 | 1013.8 |
| 20260905194056 | 92 | 229 | 1.7 | 5.2 | 0.00 | 0.00 | 0.00 | 63 | 1013.9 |
| 20260905193551 | 92 | 302 | 1.7 | 2.6 | 0.00 | 0.00 | 0.00 | 65 | 1014.0 |
| 20260905193046 | 95 | 273 | 4.3 | 5.2 | 0.00 | 0.00 | 0.00 | 61 | 1014.1 |
| 20260905192541 | 93 | 3 | 3.5 | 3.5 | 0.00 | 0.00 | 0.00 | 64 | 1014.2 |
| 20260905192038 | 95 | 283 | 2.6 | 3.5 | 0.00 | 0.00 | 0.00 | 64 | 1014.3 |
| 20260905191536 | 95 | 336 | 2.6 | 3.5 | 0.00 | 0.00 | 0.00 | 62 | 1014.4 |
| 20260905191036 | 95 | 233 | 0.9 | 1.7 | 0.00 | 0.00 | 0.00 | 62 | 1014.4 |
| 20260905190533 | 94 | 231 | 1.7 | 1.7 | 0.00 | 0.00 | 0.00 | 61 | 1014.4 |
| 20260905190027 | 94 | 136 | 0.0 | 0.9 | 0.00 | 0.00 | 0.00 | 62 | 1014.4 |
| 20260905185527 | 94 | 196 | 0.9 | 1.7 | 0.00 | 0.00 | 0.00 | 62 | 1014.5 |
| 20260905185026 | 93 | 143 | 0.9 | 0.9 | 0.00 | 0.00 | 0.00 | 66 | 1014.2 |
| 20260905184526 | 94 | 256 | 2.6 | 3.5 | 0.00 | 0.00 | 0.00 | 64 | 1014.1 |
| 20260905184025 | 93 | 138 | 0.9 | 1.7 | 0.00 | 0.00 | 0.00 | 67 | 1014.3 |
| 20260905183520 | 93 | 225 | 0.9 | 0.9 | 0.00 | 0.00 | 0.00 | 67 | 1014.4 |
| 20260905183015 | 91 | 104 | 1.7 | 1.7 | 0.00 | 0.00 | 0.00 | 69 | 1014.5 |
| 20260905182514 | 94 | 108 | 4.3 | 5.2 | 0.00 | 0.00 | 0.00 | 66 | 1014.6 |
| 20260905182009 | 93 | 208 | 1.7 | 2.6 | 0.00 | 0.00 | 0.00 | 67 | 1014.6 |
| 20260905181504 | 93 | 150 | 0.9 | 1.7 | 0.00 | 0.00 | 0.00 | 68 | 1014.8 |
| 20260905181003 | 92 | 303 | 2.6 | 2.6 | 0.00 | 0.00 | 0.00 | 70 | 1015.0 |
| 20260905180458 | 92 | 91 | 2.6 | 3.5 | 0.00 | 0.00 | 0.00 | 71 | 1014.9 |
| 20260905175953 | 91 | 177 | 1.7 | 2.6 | 0.00 | 0.00 | 0.00 | 71 | 1015.2 |
| 20260905175453 | 92 | 153 | 1.7 | 2.6 | 0.00 | 0.00 | 0.00 | 71 | 1015.2 |
| 20260905174949 | 91 | 236 | 1.7 | 2.6 | 0.00 | 0.00 | 0.00 | 70 | 1015.1 |
| 20260905174449 | 91 | 141 | 0.9 | 1.7 | 0.00 | 0.00 | 0.00 | 73 | 1015.2 |
| 20260905173945 | 92 | 236 | 2.6 | 2.6 | 0.00 | 0.00 | 0.00 | 72 | 1015.4 |
| 20260905173441 | 90 | 273 | 0.9 | 0.9 | 0.00 | 0.00 | 0.00 | 73 | 1015.4 |
| 20260905172936 | 89 | 237 | 1.7 | 2.6 | 0.00 | 0.00 | 0.00 | 75 | 1015.5 |
| 20260905172434 | 89 | 31 | 1.7 | 2.6 | 0.00 | 0.00 | 0.00 | 76 | 1015.6 |
| 20260905171930 | 90 | 278 | 3.5 | 3.5 | 0.00 | 0.00 | 0.00 | 75 | 1015.6 |
| 20260905171426 | 90 | 252 | 0.9 | 1.7 | 0.00 | 0.00 | 0.00 | 76 | 1015.7 |
| 20260905170922 | 90 | 250 | 1.7 | 1.7 | 0.00 | 0.00 | 0.00 | 77 | 1015.8 |
| 20260905170418 | 90 | 149 | 1.7 | 1.7 | 0.00 | 0.00 | 0.00 | 78 | 1015.8 |
| 20260905165918 | 90 | 232 | 0.9 | 0.9 | 0.00 | 0.00 | 0.00 | 77 | 1015.8 |
| 20260905165413 | 88 | 213 | 0.0 | 0.0 | 0.00 | 0.00 | 0.00 | 77 | 1015.9 |
| 20260905164909 | 87 | 342 | 1.7 | 2.6 | 0.00 | 0.00 | 0.00 | 80 | 1015.9 |
| 20260905164408 | 88 | 348 | 3.5 | 3.5 | 0.00 | 0.00 | 0.00 | 79 | 1016.0 |
| 20260905163903 | 88 | 340 | 2.6 | 2.6 | 0.00 | 0.00 | 0.00 | 78 | 1016.4 |
| 20260905163400 | 88 | 222 | 0.0 | 0.0 | 0.00 | 0.00 | 0.00 | 80 | 1016.3 |
| 20260905162856 | 88 | 208 | 0.9 | 0.9 | 0.00 | 0.00 | 0.00 | 77 | 1016.3 |
| 20260905162355 | 89 | 323 | 2.6 | 2.6 | 0.00 | 0.00 | 0.00 | 78 | 1016.5 |
| 20260905161850 | 89 | 0 | 1.7 | 1.7 | 0.00 | 0.00 | 0.00 | 79 | 1016.4 |
| 20260905161350 | 89 | 199 | 1.7 | 2.6 | 0.00 | 0.00 | 0.00 | 77 | 1016.4 |
| 20260905160848 | 87 | 215 | 0.0 | 0.9 | 0.00 | 0.00 | 0.00 | 79 | 1016.6 |
| 20260905160342 | 88 | 143 | 2.6 | 2.6 | 0.00 | 0.00 | 0.00 | 81 | 1016.5 |
| 20260905155837 | 86 | 161 | 1.7 | 1.7 | 0.00 | 0.00 | 0.00 | 81 | 1016.6 |
| 20260905155337 | 86 | 186 | 0.9 | 1.7 | 0.00 | 0.00 | 0.00 | 82 | 1016.5 |
| 20260905154836 | 86 | 105 | 1.7 | 2.6 | 0.00 | 0.00 | 0.00 | 86 | 1016.6 |
| 20260905154332 | 86 | 132 | 1.7 | 1.7 | 0.00 | 0.00 | 0.00 | 84 | 1016.4 |
| 20260905153827 | 86 | 227 | 0.0 | 0.9 | 0.00 | 0.00 | 0.00 | 83 | 1016.5 |
| 20260905153324 | 86 | 240 | 0.9 | 0.9 | 0.00 | 0.00 | 0.00 | 85 | 1016.5 |
| 20260905152823 | 86 | 229 | 0.9 | 1.7 | 0.00 | 0.00 | 0.00 | 85 | 1016.6 |
| 20260905152322 | 86 | 231 | 2.6 | 2.6 | 0.00 | 0.00 | 0.00 | 84 | 1016.8 |
| 20260905151818 | 86 | 71 | 1.7 | 1.7 | 0.00 | 0.00 | 0.00 | 85 | 1016.7 |
| 20260905151313 | 85 | 128 | 0.9 | 0.9 | 0.00 | 0.00 | 0.00 | 88 | 1016.6 |
| 20260905150813 | 84 | 249 | 1.7 | 2.6 | 0.00 | 0.00 | 0.00 | 87 | 1016.9 |
| 20260905150314 | 85 | 171 | 0.0 | 0.9 | 0.00 | 0.00 | 0.00 | 87 | 1017.0 |
| 20260905145811 | 84 | 299 | 0.9 | 0.9 | 0.00 | 0.00 | 0.00 | 88 | 1016.8 |
| 20260905145310 | 86 | 243 | 0.0 | 0.0 | 0.00 | 0.00 | 0.00 | 84 | 1016.9 |
| 20260905144809 | 86 | 227 | 0.0 | 0.9 | 0.00 | 0.00 | 0.00 | 87 | 1016.7 |
| 20260905144305 | 85 | 99 | 1.7 | 1.7 | 0.00 | 0.00 | 0.00 | 86 | 1016.9 |
| 20260905143804 | 83 | 118 | 1.7 | 1.7 | 0.00 | 0.00 | 0.00 | 89 | 1017.0 |
| 20260905143258 | 84 | 89 | 0.0 | 0.9 | 0.00 | 0.00 | 0.00 | 90 | 1016.9 |
| 20260905142757 | 82 | 191 | 0.0 | 0.0 | 0.00 | 0.00 | 0.00 | 92 | 1017.1 |
| 20260905142251 | 81 | 219 | 0.0 | 0.0 | 0.00 | 0.00 | 0.00 | 94 | 1017.0 |
| 20260905141748 | 80 | 305 | 1.7 | 1.7 | 0.00 | 0.00 | 0.00 | 94 | 1017.2 |
| 20260905141243 | 80 | 298 | 1.7 | 1.7 | 0.00 | 0.00 | 0.00 | 95 | 1017.1 |
| 20260905140738 | 79 | 229 | 1.7 | 1.7 | 0.00 | 0.00 | 0.00 | 98 | 1017.4 |
| 20260905140233 | 78 | 249 | 1.7 | 1.7 | 0.00 | 0.00 | 0.00 | 99 | 1017.2 |
| 20260905135732 | 77 | 304 | 0.9 | 1.7 | 0.00 | 0.00 | 0.00 | 99 | 1017.0 |
| 20260905135228 | 77 | 227 | 0.0 | 0.9 | 0.00 | 0.00 | 0.00 | 99 | 1017.3 |
| 20260905134727 | 78 | 271 | 0.0 | 0.0 | 0.00 | 0.00 | 0.00 | 99 | 1017.0 |
| 20260905134227 | 77 | 231 | 0.9 | 0.9 | 0.00 | 0.00 | 0.00 | 99 | 1016.9 |
| 20260905133722 | 76 | 220 | 0.0 | 0.9 | 0.00 | 0.00 | 0.00 | 99 | 1017.0 |
| 20260905133217 | 77 | 227 | 0.9 | 0.9 | 0.00 | 0.00 | 0.00 | 99 | 1017.0 |
| 20260905132716 | 77 | 220 | 0.0 | 0.0 | 0.00 | 0.00 | 0.00 | 99 | 1017.3 |
| 20260905132211 | 77 | 223 | 0.0 | 0.9 | 0.00 | 0.00 | 0.00 | 99 | 1017.1 |
| 20260905131707 | 77 | 225 | 1.7 | 1.7 | 0.00 | 0.00 | 0.00 | 99 | 1017.4 |
| 20260905131202 | 77 | 234 | 0.9 | 1.7 | 0.00 | 0.00 | 0.00 | 99 | 1017.2 |
| 20260905130702 | 76 | 234 | 0.9 | 0.9 | 0.00 | 0.00 | 0.00 | 99 | 1017.2 |
| 20260905130156 | 77 | 251 | 0.0 | 1.7 | 0.00 | 0.00 | 0.00 | 99 | 1017.3 |
| 20260905125656 | 77 | 238 | 0.0 | 0.0 | 0.00 | 0.00 | 0.00 | 99 | 1017.4 |
| 20260905125152 | 77 | 177 | 0.0 | 0.9 | 0.00 | 0.00 | 0.00 | 99 | 1017.4 |
| 20260905124648 | 76 | 214 | 0.0 | 0.0 | 0.00 | 0.00 | 0.00 | 99 | 1017.4 |
| 20260905124143 | 76 | 233 | 1.7 | 2.6 | 0.00 | 0.00 | 0.00 | 99 | 1017.2 |
| 20260905123638 | 76 | 240 | 0.0 | 0.9 | 0.00 | 0.00 | 0.00 | 99 | 1017.3 |
| 20260905123136 | 76 | 205 | 0.0 | 0.0 | 0.00 | 0.00 | 0.00 | 99 | 1017.1 |
| 20260905122635 | 76 | 180 | 0.0 | 0.9 | 0.00 | 0.00 | 0.00 | 99 | 1016.9 |
| 20260905122130 | 76 | 233 | 0.0 | 0.0 | 0.00 | 0.00 | 0.00 | 99 | 1016.8 |
| 20260905121625 | 76 | 203 | 0.0 | 0.0 | 0.00 | 0.00 | 0.00 | 99 | 1016.9 |
| 20260905121120 | 76 | 200 | 0.0 | 0.0 | 0.00 | 0.00 | 0.00 | 99 | 1017.0 |